Accueil
METAR-TAF:

METAR-TAF

Aéroports :

Dibrugarh, Inde

latitude: 27-29N, longitude: 095-01E, altitude: 110 m

Observation

Le bulletin a été fait il y a 16 minutes, à 08:00 UTC
Vent 3 kt de sud/sud-est
Température 26°C
Humidité 32%
Pression 1019 hPa
Visibilité: 6000 m
Quelques nuages à une hauteur de 10000 ft

METAR: VEMN 060800Z 16003KT 6000 FEW100 26/08 Q1019 NOSIG

Heure: 13:46 (08:16 UTC)

Prévision

Le bulletin a été fait il y a 3 heures et 16 minutes, à 05:00 UTC
Prévision valable du 06 à 06 UTC au 06 à 15 UTC
Vent 5 kt de nord-est
Visibilité: 6000 m
Quelques nuages à une hauteur de 2000 ft
Nuages fragmentés à une hauteur de 10000 ft
Evoluant progressivement
du 06 à 12 UTC au 06 à 15 UTC
Visibilité: 4000 m
brume sèche

TAF: VEMN 060500Z 0606/0615 05005KT 6000 FEW020 BKN100 BECMG 0612/0615 4000 HZ

Observations et prévisions météorologiques de plus de 4000 aéroports (messages METAR et TAF).

Les stations disponibles sont représentées par des disques jaunes et rouges sur la carte.

Passer la souris dessus pour voir le nom de la station.

Cliquer dessus pour voir les observations et prévisions météorologiques.

Pour changer de carte: cliquez sur les boutons verts avec une croix noire pour zoomer, sur le bouton vert avec un tiret pour effectuer un zoom arrière, ou sur les flèches vertes pour les cartes adjacentes.


METAR-TAF: